Historyczne dane pomiarowe

Dodano dane terminowe – wersja testowa.

Dane z okresu 1951-2019

Wersja bazy: 1.34 [2019-03-16, lista zmian], aktualizacja planowana na 2019-04-15

Dane meteo z obszaru Polski uzyskane na podstawie danych udostępnionych przez Instytut Meteorologii i Gospodarki Wodnej – Państwowy Instytut Badawczy.

 

Wybierz Datę:    

       

TemperaturaWilgotnośćWiatrCiśnienieOpadyŚniegCzas trwania zjawisk
 Stacja t tx tn tng RH VA  wxwx mslp ppp RRR   cm mm wxwxwxwxwxwxwx
1980-04-17 9.4 19.7 -1.5 -3.2 65.3- 0.0 1.3---- 0.0------------
1980-04-18 6.7 15.6 3.0 1.4 77.8- 7.3 7.3---- 2.0------------
1980-04-19 4.6 8.2 0.1 0.7 71.0- 5.0 16.3---- 2.2------------
1980-04-20 1.9 5.5 -1.0 -1.2 80.8- 7.3 7.3---- 1.8------------
1980-04-21 3.9 9.2 -0.2 -1.5 80.3- 6.3 1.3---- 0.0------------
1980-04-22 4.2 10.5 -3.1 -5.7 86.5- 7.7 4.7---- 3.4------------
1980-04-23 5.1 9.5 2.7 2.7 91.3- 8.0 6.7---- 10.5------------
1980-04-24 5.7 8.0 4.1 4.6 89.8- 7.0 2.3---- 3.5------------
1980-04-25 4.1 10.7 -0.6 -1.6 92.3- 7.7 2.3---- 2.8------------
1980-04-26 6.7 13.5 -0.2 -1.9 87.0- 8.0 2.7---- 4.0------------
1980-04-27 8.1 12.2 4.4 3.5 78.5- 5.3 3.0---- 0.0------------
1980-04-28 7.4 13.5 -0.7 -1.8 81.3- 3.0 2.3---- 0.0------------
1980-04-29 7.9 15.7 -0.1 -1.5 75.0- 5.3 2.0---- 0.0------------
1980-04-30 8.7 17.3 0.5 0.2 80.0- 4.7 1.7---- 0.0------------
1980-05-01 10.4 17.7 2.7 0.7 77.3- 5.3 3.7---- 0.0------------
1980-05-02 7.1 12.0 5.5 6.2 73.5- 7.7 3.7---- 0.0------------
1980-05-03 5.7 12.0 -1.1 -2.8 59.8- 1.7 3.7---- 0.0------------
1980-05-04 4.8 10.5 -2.8 -4.5 61.8- 4.3 4.0---- 0.0------------
1980-05-05 5.1 13.2 -3.4 -5.4 71.8- 4.7 2.7---- 0.0------------
1980-05-06 7.3 16.1 -4.1 -5.6 68.5- 1.3 3.0---- 0.0------------
1980-05-07 11.6 19.0 3.0 0.1 69.3- 4.0 3.0---- 0.0------------
1980-05-08 13.9 19.1 4.4 3.0 66.3- 4.3 3.0---- 11.3------------
1980-05-09 8.3 15.7 5.9 5.9 76.8- 8.0 4.0---- 9.0------------
1980-05-10 9.3 16.4 -0.5 -2.5 58.8- 2.0 3.3---- 0.0------------
1980-05-11 10.7 18.2 1.0 -1.6 54.5- 1.0 2.3---- 0.0------------
1980-05-12 8.5 14.6 -0.6 -2.7 52.0- 0.7 2.7---- 0.0------------
1980-05-13 8.5 15.7 -2.2 -3.7 48.0- 0.0 2.3---- 0.0------------
1980-05-14 7.0 13.1 -1.0 -4.0 55.0- 1.3 3.0---- 0.0------------
1980-05-15 7.7 14.3 -1.6 -2.5 61.5- 3.0 1.7---- 0.0------------
1980-05-16 9.1 16.7 -3.1 -3.9 58.8- 3.0 2.7---- 0.0------------
280.4 ms

 

Źródłem pochodzenia danych jest Instytut Meteorologii i Gospodarki Wodnej – Państwowy Instytut Badawczy. Dane Instytutu Meteorologii i Gospodarki Wodnej – Państwowego Instytutu Badawczego zostały przetworzone.

Dane źródłowe można odnaleźć na stronie https://dane.imgw.pl